Ana Sayfa
METAR-TAF:

METAR-TAF

Havaalanları :

Cambridge, Maryland, Amerika Birleşik Devletleri

Enlem: 38-32-22N, Boylam: 076-01-49W, yükseklik: 6 m

Güncel hava durumu gözlemi

Rapor saat 20:45 UTC de 9 dakika önce yapıldı.
Rüzgar güney/güneybatıdan 8 kt ve 17 kt'a kadar ani rüzgarlar, güney/güneydoğu ve güneybatı arasında değişken
Sıcaklık 34°C
Nem 56%
Basınç 1008 hPa
Görüş mesafesi: 16.1 km
5500 ft yükseklikte az bulutlu
9000 ft yükseklikte az bulutlu

METAR: KCGE 222045Z AUTO 20008G17KT 160V220 10SM FEW055 FEW090 34/24 A2976 RMK A01

Saat: 16:54 (20:54 UTC)


TAF: eksik

4.000'den fazla havaalanı için hava durumu gözlemleri ve tahminleri (METAR ve TAF raporları).

Kullanılabilir istasyonlar harita üzerinde sarı ve kırmızı noktalarla gösterilir.

İstasyonun adını görmek için fareyi noktanın üzerinde gezdirin.

Sonrasında hava gözlem ve tahminlerini görmek için tıklayın.

Haritayı değiştirmek için: yaklaştırmak için siyah artı işaretli yeşil düğmeye ve uzaklaştırmak için de eksi işaretli düğmeye hızla tıklayın; bitişik haritalar için yeşil okları kullanın.


METAR-TAF: